Time;durP1;ratioP1;P1;durP2;ratioP2;P2;SDS_P1;SDS_P2;PMS_P1;PMS_P2;Temp;Humidity;BMP_temperature;BMP_pressure;BME280_temperature;BME280_humidity;BME280_pressure;Samples;Min_cycle;Max_cycle;Signal;HPM_P1;HPM_P2
2023/10/09 00:01:14;;;;;;;7.43;2.90;;;2.50;99.90;;;;;;1902958;74;26405;-90
2023/10/09 00:06:54;;;;;;;9.00;3.37;;;2.40;99.90;;;;;;1959822;72;27509;-88
2023/10/09 00:09:46;;;;;;;10.93;4.03;;;2.40;99.90;;;;;;1917108;73;25331;-90
2023/10/09 00:12:35;;;;;;;8.93;3.30;;;2.50;99.90;;;;;;1917705;73;25250;-86
2023/10/09 00:40:20;;;;;;;7.70;2.80;;;2.80;99.90;;;;;;1981565;71;27376;-90
2023/10/09 00:45:50;;;;;;;4.33;2.53;;;2.50;99.90;;;;;;1939514;72;27414;-88
2023/10/09 00:48:40;;;;;;;6.90;2.83;;;2.40;99.90;;;;;;1933640;73;25725;-90
2023/10/09 00:51:35;;;;;;;6.07;2.50;;;2.30;99.90;;;;;;1926910;73;25237;-88
2023/10/09 00:54:26;;;;;;;7.23;2.87;;;2.20;99.90;;;;;;1939499;73;25295;-90
2023/10/09 01:00:13;;;;;;;6.80;2.43;;;1.90;99.90;;;;;;1945316;72;27621;-88
2023/10/09 01:03:10;;;;;;;5.50;2.17;;;1.80;99.90;;;;;;1924315;73;25816;-90
2023/10/09 01:05:52;;;;;;;4.47;2.37;;;1.70;99.90;;;;;;1949614;73;25265;-88
2023/10/09 01:08:47;;;;;;;5.57;2.30;;;1.60;99.90;;;;;;1932445;73;25283;-90
2023/10/09 01:11:38;;;;;;;4.00;2.20;;;1.50;99.90;;;;;;1923180;73;25738;-90
2023/10/09 01:14:25;;;;;;;4.30;2.20;;;1.40;99.90;;;;;;1920924;73;25245;-90
2023/10/09 01:17:30;;;;;;;8.90;2.23;;;1.30;99.90;;;;;;1936113;73;25211;-90
2023/10/09 01:20:15;;;;;;;4.43;2.43;;;1.30;99.90;;;;;;1924669;73;25278;-90
2023/10/09 01:23:02;;;;;;;6.43;2.20;;;1.20;99.90;;;;;;1929924;73;25738;-90
2023/10/09 01:25:51;;;;;;;4.50;2.13;;;1.20;99.90;;;;;;1925701;73;25328;-90
2023/10/09 01:28:39;;;;;;;6.20;2.47;;;1.20;99.90;;;;;;1947309;73;25725;-90
2023/10/09 01:31:33;;;;;;;4.93;2.30;;;1.20;99.90;;;;;;1934216;73;25367;-90
2023/10/09 01:34:19;;;;;;;6.53;2.50;;;1.10;99.90;;;;;;1924709;73;25223;-90
2023/10/09 01:37:11;;;;;;;4.13;2.07;;;1.10;99.90;;;;;;1935303;73;25213;-90
2023/10/09 01:42:45;;;;;;;3.10;1.87;;;0.90;99.90;;;;;;1922492;72;27579;-88
2023/10/09 01:48:12;;;;;;;4.30;2.00;;;0.80;99.90;;;;;;1946058;72;27146;-88
2023/10/09 01:51:00;;;;;;;4.10;2.07;;;0.60;99.90;;;;;;1915570;75;25304;-88
2023/10/09 01:53:56;;;;;;;5.23;1.83;;;0.60;99.90;;;;;;1890267;75;25291;-90
2023/10/09 01:56:41;;;;;;;5.33;2.03;;;0.50;99.90;;;;;;1897205;75;25195;-90
2023/10/09 01:59:29;;;;;;;4.13;2.40;;;0.60;99.90;;;;;;1891597;75;25334;-90
2023/10/09 02:02:31;;;;;;;4.07;2.07;;;0.70;99.90;;;;;;1899725;75;25241;-89
2023/10/09 02:05:25;;;;;;;3.73;1.90;;;0.70;99.90;;;;;;1884273;75;25258;-89
2023/10/09 02:08:15;;;;;;;2.33;1.57;;;0.80;99.90;;;;;;1885728;75;25212;-89
2023/10/09 02:11:04;;;;;;;4.17;2.10;;;0.70;99.90;;;;;;1877301;75;25172;-89
2023/10/09 02:14:00;;;;;;;2.37;1.53;;;0.60;99.90;;;;;;1884010;75;25648;-89
2023/10/09 02:16:45;;;;;;;2.77;1.63;;;0.60;99.90;;;;;;1903804;75;25186;-89
2023/10/09 02:19:34;;;;;;;4.57;1.70;;;0.40;99.90;;;;;;1902570;75;25206;-89
2023/10/09 02:22:26;;;;;;;4.20;1.67;;;0.30;99.90;;;;;;1898680;75;25209;-89
2023/10/09 02:25:13;;;;;;;4.43;1.70;;;0.20;99.90;;;;;;1885220;75;25196;-89
2023/10/09 02:28:05;;;;;;;2.87;1.50;;;0.20;99.90;;;;;;1899781;75;25223;-89
2023/10/09 02:30:52;;;;;;;2.23;1.50;;;0.20;99.90;;;;;;1885229;75;25247;-89
2023/10/09 02:33:41;;;;;;;2.47;1.47;;;0.10;99.90;;;;;;1892510;75;25178;-89
2023/10/09 02:40:22;;;;;;;2.37;1.80;;;0.10;99.90;;;;;;1964538;71;27519;-90
2023/10/09 02:43:04;;;;;;;1.63;1.33;;;0.10;99.90;;;;;;1925001;73;25667;-89
2023/10/09 02:45:53;;;;;;;1.70;1.40;;;0.20;99.90;;;;;;1992068;70;25655;-89
2023/10/09 02:51:32;;;;;;;4.87;1.37;;;0.00;99.90;;;;;;1900715;75;27186;-88
2023/10/09 02:57:07;;;;;;;1.73;1.33;;;0.00;99.90;;;;;;1941250;72;27068;-90
2023/10/09 02:59:59;;;;;;;4.03;1.47;;;0.00;99.90;;;;;;1916207;73;25253;-88
2023/10/09 03:02:49;;;;;;;1.87;1.50;;;-0.10;99.90;;;;;;1916364;73;25191;-90
2023/10/09 03:05:38;;;;;;;1.73;1.30;;;-0.20;99.90;;;;;;1915580;73;25184;-90
2023/10/09 03:08:26;;;;;;;2.10;1.30;;;-0.30;99.90;;;;;;1917341;73;25635;-89
2023/10/09 03:11:16;;;;;;;2.40;1.50;;;-0.30;99.90;;;;;;1930905;73;25246;-90
2023/10/09 03:14:05;;;;;;;1.83;1.40;;;-0.30;99.90;;;;;;1916518;73;25804;-90
2023/10/09 03:16:53;;;;;;;2.07;1.30;;;-0.40;99.90;;;;;;1925656;73;25314;-90
2023/10/09 03:19:43;;;;;;;2.10;1.47;;;-0.40;99.90;;;;;;1927388;73;25282;-90
2023/10/09 03:22:31;;;;;;;2.00;1.50;;;-0.30;99.90;;;;;;1939980;73;25249;-90
2023/10/09 03:28:11;;;;;;;1.30;1.20;;;-0.60;99.90;;;;;;2023463;69;27008;-90
2023/10/09 03:31:02;;;;;;;3.60;1.67;;;-0.60;99.90;;;;;;1994185;71;25234;-90
2023/10/09 03:33:51;;;;;;;3.37;1.43;;;-0.50;99.90;;;;;;2000419;71;25200;-90
2023/10/09 03:36:40;;;;;;;2.80;1.40;;;-0.50;99.90;;;;;;1992617;71;25691;-90
2023/10/09 03:39:33;;;;;;;2.87;1.40;;;-0.50;99.90;;;;;;1992603;71;25275;-88
2023/10/09 03:42:24;;;;;;;2.37;1.63;;;-0.50;99.90;;;;;;2000184;71;25281;-90
2023/10/09 03:45:24;;;;;;;4.00;1.30;;;-0.50;99.90;;;;;;2008666;71;25225;-90
2023/10/09 03:50:48;;;;;;;1.77;1.23;;;-0.50;99.90;;;;;;1940831;72;27066;-89
2023/10/09 03:53:38;;;;;;;2.63;1.50;;;-0.50;99.90;;;;;;1921213;73;25160;-90
2023/10/09 03:56:27;;;;;;;3.63;1.60;;;-0.60;99.90;;;;;;1943723;73;25268;-89
2023/10/09 03:59:16;;;;;;;2.37;1.53;;;-0.50;99.90;;;;;;1924086;73;25731;-89
2023/10/09 04:02:05;;;;;;;6.07;1.80;;;-0.60;99.90;;;;;;1938511;73;25785;-89
2023/10/09 04:04:54;;;;;;;2.17;1.40;;;-0.50;99.90;;;;;;1873161;76;25266;-89
2023/10/09 04:07:43;;;;;;;3.77;1.60;;;-0.60;99.90;;;;;;1925566;73;25257;-89
2023/10/09 04:10:43;;;;;;;2.57;1.60;;;-0.60;99.90;;;;;;1927284;73;25240;-89
2023/10/09 04:13:34;;;;;;;2.87;1.50;;;-0.70;99.90;;;;;;1917460;73;25732;-89
2023/10/09 04:16:34;;;;;;;4.00;1.60;;;-0.70;99.90;;;;;;1930232;73;25253;-89
2023/10/09 04:19:23;;;;;;;4.23;1.80;;;-0.70;99.90;;;;;;1932466;73;25224;-89
2023/10/09 04:22:25;;;;;;;3.13;1.50;;;-0.70;99.90;;;;;;1916499;73;25172;-89
2023/10/09 04:28:03;;;;;;;3.10;1.87;;;-0.70;99.90;;;;;;1943090;72;27103;-89
2023/10/09 04:30:46;;;;;;;3.97;1.80;;;-0.80;99.90;;;;;;1907671;74;25283;-89
2023/10/09 04:33:42;;;;;;;2.97;1.97;;;-0.80;99.90;;;;;;1912781;74;25311;-89
2023/10/09 04:39:45;;;;;;;3.83;2.10;;;-0.90;99.90;;;;;;1942157;72;27401;-89
2023/10/09 04:42:36;;;;;;;3.03;1.93;;;-1.00;99.90;;;;;;1914944;73;25282;-89
2023/10/09 04:54:39;;;;;;;3.37;2.30;;;-1.00;99.90;;;;;;1955133;72;27154;-89
2023/10/09 04:57:25;;;;;;;6.13;2.70;;;-1.00;99.90;;;;;;1930346;73;25163;-89
2023/10/09 05:00:35;;;;;;;5.63;2.50;;;-1.10;99.90;;;;;;1938479;73;25959;-89
2023/10/09 05:03:26;;;;;;;5.13;2.50;;;-1.20;99.90;;;;;;1918330;73;25656;-89
2023/10/09 05:06:20;;;;;;;6.33;2.60;;;-1.20;99.90;;;;;;1926895;73;25182;-89
2023/10/09 05:08:54;;;;;;;4.00;2.33;;;-1.20;99.90;;;;;;1937370;73;26543;-89
2023/10/09 05:12:09;;;;;;;8.67;2.40;;;-1.10;99.90;;;;;;1867068;76;25143;-89
2023/10/09 05:15:07;;;;;;;3.20;2.33;;;-1.20;99.90;;;;;;1882898;75;25360;-89
2023/10/09 05:17:39;;;;;;;4.63;2.80;;;-1.20;99.90;;;;;;1930738;73;25319;-89
2023/10/09 05:26:50;;;;;;;8.70;2.80;;;-1.20;99.90;;;;;;1943364;72;27017;-89
2023/10/09 05:29:59;;;;;;;6.20;2.80;;;-1.10;99.90;;;;;;1925300;73;25208;-89
2023/10/09 05:32:48;;;;;;;6.00;3.10;;;-1.10;99.90;;;;;;1916822;73;25275;-89
2023/10/09 05:35:40;;;;;;;8.63;3.53;;;-1.10;99.90;;;;;;1919161;73;25681;-89
2023/10/09 05:38:30;;;;;;;14.40;4.57;;;-1.20;99.90;;;;;;1929794;73;25674;-89
2023/10/09 05:47:32;;;;;;;19.67;7.57;;;-1.30;99.90;;;;;;1924094;73;25229;-89
2023/10/09 05:50:37;;;;;;;18.20;7.13;;;-1.30;99.90;;;;;;1907089;73;25821;-89
2023/10/09 05:53:55;;;;;;;16.47;6.40;;;-1.40;99.90;;;;;;1908659;73;25714;-89
2023/10/09 06:06:01;;;;;;;13.17;4.70;;;-1.30;99.90;;;;;;1913149;73;25299;-89
2023/10/09 06:15:30;;;;;;;13.53;4.60;;;-1.20;99.90;;;;;;1988915;71;26300;-89
2023/10/09 06:18:26;;;;;;;14.70;4.13;;;-1.20;99.90;;;;;;2021996;69;25164;-89
2023/10/09 06:24:22;;;;;;;13.67;4.67;;;-1.10;99.90;;;;;;2008635;70;25274;-89
2023/10/09 06:27:12;;;;;;;6.83;2.93;;;-1.10;99.90;;;;;;2032599;69;25189;-89
2023/10/09 06:30:15;;;;;;;10.03;3.27;;;-0.80;99.90;;;;;;2025796;70;25676;-89
2023/10/09 06:33:29;;;;;;;6.47;2.90;;;-0.70;99.90;;;;;;2001836;69;25175;-89
2023/10/09 06:42:51;;;;;;;5.23;3.37;;;-0.40;99.90;;;;;;1973563;70;25186;-89
2023/10/09 06:45:44;;;;;;;7.37;3.20;;;-0.40;99.90;;;;;;1922506;73;25191;-89
2023/10/09 06:48:44;;;;;;;8.53;3.60;;;-0.10;99.90;;;;;;1924904;73;25189;-89
2023/10/09 06:51:41;;;;;;;7.17;3.40;;;0.20;99.90;;;;;;1972834;71;25240;-89
2023/10/09 06:54:37;;;;;;;8.47;3.47;;;0.50;99.90;;;;;;1972601;72;25324;-90
2023/10/09 06:57:48;;;;;;;8.70;3.80;;;0.70;99.90;;;;;;1970202;71;25277;-89
2023/10/09 07:03:52;;;;;;;8.27;3.23;;;1.10;99.90;;;;;;1920803;74;25263;-90
2023/10/09 07:06:50;;;;;;;8.73;3.17;;;1.40;99.90;;;;;;1975182;71;25137;-88
2023/10/09 07:09:42;;;;;;;5.47;2.90;;;1.60;99.90;;;;;;1958893;72;25219;-89
2023/10/09 07:12:32;;;;;;;3.90;1.90;;;2.00;99.90;;;;;;1969740;72;25151;-88
2023/10/09 07:24:13;;;;;;;3.17;1.70;;;2.50;99.90;;;;;;1930722;72;27037;-89
2023/10/09 07:27:14;;;;;;;1.67;1.30;;;2.50;99.90;;;;;;1901548;73;25764;-89
2023/10/09 07:30:00;;;;;;;3.33;1.40;;;2.80;99.90;;;;;;1866121;75;25328;-89
2023/10/09 07:32:52;;;;;;;2.30;1.50;;;3.00;99.90;;;;;;1838549;76;25311;-90
2023/10/09 07:35:47;;;;;;;1.17;0.77;;;3.00;99.90;;;;;;1858967;75;25232;-90
2023/10/09 07:38:36;;;;;;;1.07;0.97;;;3.10;99.90;;;;;;1825490;77;25188;-90
2023/10/09 07:41:37;;;;;;;1.77;1.17;;;3.20;99.90;;;;;;1803968;77;25239;-88
2023/10/09 07:44:42;;;;;;;1.93;1.17;;;3.40;99.90;;;;;;1832229;76;25273;-90
2023/10/09 07:48:00;;;;;;;1.00;1.00;;;3.80;99.90;;;;;;1843896;76;25357;-89
2023/10/09 07:50:48;;;;;;;2.03;1.10;;;3.90;99.90;;;;;;1828155;76;25651;-91
2023/10/09 07:53:43;;;;;;;0.90;0.90;;;3.90;99.90;;;;;;1827558;76;25828;-89
2023/10/09 07:56:22;;;;;;;1.90;1.00;;;4.00;99.90;;;;;;1834936;77;25463;-91
2023/10/09 07:59:11;;;;;;;2.50;0.77;;;4.30;99.90;;;;;;1898005;73;25227;-89
2023/10/09 08:02:02;;;;;;;1.27;0.97;;;4.30;99.90;;;;;;1896714;75;25713;-90
2023/10/09 08:04:53;;;;;;;3.60;1.20;;;4.60;99.90;;;;;;1894922;75;25229;-89
2023/10/09 08:07:54;;;;;;;2.30;1.10;;;5.10;99.90;;;;;;1830894;78;25344;-89
2023/10/09 08:16:41;;;;;;;2.20;1.00;;;5.60;99.90;;;;;;1939980;73;26345;-89
2023/10/09 08:33:43;;;;;;;1.60;1.00;;;5.80;99.90;;;;;;1864815;75;27097;-89
2023/10/09 08:39:25;;;;;;;1.00;0.90;;;6.60;99.90;;;;;;1940419;72;27007;-88
2023/10/09 08:42:08;;;;;;;1.23;1.13;;;6.30;99.90;;;;;;1898532;73;25265;-88
2023/10/09 08:45:00;;;;;;;5.10;1.10;;;6.40;99.90;;;;;;1881030;75;25284;-88
2023/10/09 08:47:52;;;;;;;1.10;1.00;;;6.70;99.90;;;;;;1881834;75;25240;-90
2023/10/09 08:50:40;;;;;;;1.07;0.93;;;7.00;99.90;;;;;;1882941;75;25289;-90
2023/10/09 08:53:31;;;;;;;4.53;0.90;;;7.20;99.90;;;;;;1878011;75;25874;-90
2023/10/09 08:56:22;;;;;;;4.53;0.97;;;7.00;99.90;;;;;;1882638;75;25334;-88
2023/10/09 08:59:42;;;;;;;1.43;1.00;;;7.10;99.90;;;;;;1875262;75;25709;-89
2023/10/09 09:02:31;;;;;;;1.90;0.83;;;6.90;99.90;;;;;;1873507;75;25318;-88
2023/10/09 09:05:21;;;;;;;1.43;0.80;;;6.90;99.90;;;;;;1874577;75;25257;-90
2023/10/09 09:08:28;;;;;;;2.00;1.10;;;7.10;99.90;;;;;;1871421;75;25883;-89
2023/10/09 09:11:22;;;;;;;1.70;1.10;;;7.60;99.90;;;;;;1815146;77;25304;-88
2023/10/09 09:14:18;;;;;;;1.03;0.80;;;7.90;99.90;;;;;;1805636;77;25344;-88
2023/10/09 09:19:48;;;;;;;2.43;1.10;;;7.40;99.90;;;;;;1931255;72;27051;-89
2023/10/09 09:25:24;;;;;;;1.30;0.93;;;7.80;99.90;;;;;;1959182;72;27088;-88
2023/10/09 09:28:12;;;;;;;0.90;0.90;;;7.70;99.90;;;;;;1931023;72;25216;-89
2023/10/09 09:34:04;;;;;;;2.70;1.10;;;7.80;99.90;;;;;;2033982;69;27356;-89
2023/10/09 09:36:57;;;;;;;3.07;1.13;;;8.00;99.90;;;;;;1992987;71;25143;-88
2023/10/09 09:42:34;;;;;;;1.40;1.00;;;8.10;99.90;;;;;;1938523;72;26964;-88
2023/10/09 09:45:24;;;;;;;1.10;1.00;;;8.00;99.90;;;;;;1893132;75;25224;-88
2023/10/09 09:48:16;;;;;;;3.27;1.00;;;8.10;99.90;;;;;;1872222;76;25301;-88
2023/10/09 09:51:08;;;;;;;1.83;1.10;;;8.70;99.90;;;;;;1836791;77;25291;-88
2023/10/09 09:53:56;;;;;;;4.43;0.80;;;8.70;99.90;;;;;;1835067;77;25768;-88
2023/10/09 09:56:50;;;;;;;1.87;0.90;;;8.80;99.90;;;;;;1850918;76;25188;-88
2023/10/09 10:02:33;;;;;;;0.90;0.90;;;8.90;99.90;;;;;;1945699;72;27039;-89
2023/10/09 10:05:21;;;;;;;2.17;1.10;;;8.90;99.90;;;;;;1903636;75;26055;-88
2023/10/09 10:11:05;;;;;;;0.90;0.90;;;9.00;99.90;;;;;;1943142;72;27421;-89
2023/10/09 10:17:11;;;;;;;2.20;1.20;;;9.30;99.90;;;;;;1942357;72;27276;-89
2023/10/09 10:20:25;;;;;;;2.40;0.93;;;9.30;99.90;;;;;;1924179;73;25706;-89
2023/10/09 10:22:54;;;;;;;1.00;0.90;;;9.40;99.90;;;;;;1919528;73;25210;-89
2023/10/09 10:29:32;;;;;;;5.03;1.30;;;9.30;99.90;;;;;;2076702;68;26406;-87
2023/10/09 10:32:20;;;;;;;3.80;1.10;;;9.30;99.90;;;;;;2002902;69;25220;-88
2023/10/09 10:35:10;;;;;;;2.20;1.00;;;9.20;99.90;;;;;;2004400;71;25191;-88
2023/10/09 10:40:46;;;;;;;0.97;0.97;;;9.10;99.90;;;;;;1943703;72;26858;-89
2023/10/09 10:43:45;;;;;;;4.03;1.10;;;9.10;99.90;;;;;;1925127;73;25251;-88
2023/10/09 10:49:45;;;;;;;1.37;1.27;;;9.10;99.90;;;;;;1994255;71;27068;-88
2023/10/09 10:52:41;;;;;;;5.77;1.30;;;9.30;99.90;;;;;;2018428;69;25317;-89
2023/10/09 10:58:47;;;;;;;2.97;2.33;;;9.30;99.90;;;;;;2032943;70;25637;-88
2023/10/09 11:01:26;;;;;;;4.73;2.40;;;9.40;99.90;;;;;;2031570;70;25235;-89
2023/10/09 11:04:24;;;;;;;4.20;2.70;;;9.50;99.90;;;;;;2025616;69;25184;-88
2023/10/09 11:07:09;;;;;;;3.73;2.60;;;9.30;99.90;;;;;;2015515;69;25195;-88
2023/10/09 11:10:07;;;;;;;3.60;2.33;;;9.40;99.90;;;;;;2015843;70;25697;-88
2023/10/09 11:13:30;;;;;;;5.47;2.67;;;9.30;99.90;;;;;;2026788;69;25559;-88
2023/10/09 11:15:47;;;;;;;3.53;1.90;;;9.40;99.90;;;;;;2013230;70;25646;-88
2023/10/09 11:24:34;;;;;;;1.87;1.13;;;9.30;99.90;;;;;;1905736;74;25332;-88
2023/10/09 11:27:26;;;;;;;1.63;0.97;;;9.20;99.90;;;;;;1911607;74;25769;-88
2023/10/09 11:30:21;;;;;;;1.00;0.90;;;9.30;99.90;;;;;;1913339;73;25329;-88
2023/10/09 11:33:14;;;;;;;1.10;1.00;;;9.10;99.90;;;;;;1883866;75;25191;-88
2023/10/09 11:36:07;;;;;;;0.90;0.90;;;9.10;99.90;;;;;;1858637;76;25745;-88
2023/10/09 11:39:12;;;;;;;2.73;0.80;;;9.00;99.90;;;;;;1855601;76;25205;-88
2023/10/09 11:41:49;;;;;;;2.10;1.27;;;9.10;99.90;;;;;;1849217;76;25219;-88
2023/10/09 11:44:44;;;;;;;1.70;1.20;;;9.10;99.90;;;;;;1835292;77;25593;-88
2023/10/09 12:05:23;;;;;;;2.37;1.10;;;9.50;99.90;;;;;;1941523;72;27656;-90
2023/10/09 12:08:15;;;;;;;2.77;1.30;;;9.40;99.90;;;;;;1905270;75;25235;-89
2023/10/09 12:13:56;;;;;;;1.07;0.93;;;9.50;99.90;;;;;;1943472;72;27057;-88
2023/10/09 12:16:49;;;;;;;1.60;1.00;;;9.20;99.90;;;;;;1931449;73;25234;-88
2023/10/09 12:19:36;;;;;;;1.30;0.90;;;9.20;99.90;;;;;;1924668;73;25244;-88
2023/10/09 12:22:27;;;;;;;0.90;0.80;;;9.30;99.90;;;;;;1933675;73;25275;-88
2023/10/09 12:25:14;;;;;;;1.97;1.10;;;9.30;99.90;;;;;;1876432;76;25237;-88
2023/10/09 12:28:04;;;;;;;3.40;1.10;;;9.40;99.90;;;;;;1934479;73;25237;-88
2023/10/09 12:30:53;;;;;;;4.03;1.00;;;9.40;99.90;;;;;;1920198;73;25799;-88
2023/10/09 12:33:41;;;;;;;1.67;0.90;;;9.40;99.90;;;;;;1935332;73;25169;-88
2023/10/09 12:36:30;;;;;;;2.23;1.17;;;9.30;99.90;;;;;;1925014;73;25920;-88
2023/10/09 12:39:18;;;;;;;6.47;1.03;;;9.20;99.90;;;;;;1933414;73;25169;-88
2023/10/09 12:42:08;;;;;;;2.13;1.07;;;9.20;99.90;;;;;;1931725;73;25201;-88
2023/10/09 12:47:49;;;;;;;1.57;1.20;;;9.20;99.90;;;;;;1959577;72;27059;-88
2023/10/09 13:07:31;;;;;;;1.10;1.10;;;9.20;99.90;;;;;;1973126;71;27198;-88
2023/10/09 13:10:20;;;;;;;3.07;1.20;;;9.30;99.90;;;;;;2026833;70;25193;-88
2023/10/09 13:13:11;;;;;;;1.20;1.10;;;9.40;99.90;;;;;;2026041;70;25185;-88
2023/10/09 13:15:58;;;;;;;1.07;1.07;;;9.30;99.90;;;;;;2025364;70;25189;-88
2023/10/09 13:21:31;;;;;;;1.33;0.97;;;9.10;99.90;;;;;;1938126;72;27092;-89
2023/10/09 13:24:24;;;;;;;3.30;1.00;;;9.20;99.90;;;;;;1906204;74;25242;-89
2023/10/09 13:30:05;;;;;;;1.23;1.13;;;9.20;99.90;;;;;;1947545;72;27447;-88
2023/10/09 13:35:47;;;;;;;3.70;1.40;;;9.30;99.90;;;;;;1941527;72;27126;-88
2023/10/09 13:41:20;;;;;;;3.13;1.40;;;9.20;99.90;;;;;;1954035;72;27438;-88
2023/10/09 13:44:09;;;;;;;1.00;1.00;;;9.20;99.90;;;;;;1923165;73;25254;-88
2023/10/09 13:46:58;;;;;;;4.80;1.40;;;9.20;99.90;;;;;;1912701;73;25289;-88
2023/10/09 13:52:30;;;;;;;0.77;0.77;;;9.20;99.90;;;;;;1944778;72;26958;-88
2023/10/09 13:55:19;;;;;;;2.43;1.00;;;9.10;99.90;;;;;;1955547;72;25744;-88
2023/10/09 14:01:01;;;;;;;0.90;0.80;;;9.10;99.90;;;;;;1955699;72;26926;-88
2023/10/09 14:03:52;;;;;;;1.70;0.87;;;9.00;99.90;;;;;;1927257;73;25315;-88
2023/10/09 14:09:31;;;;;;;2.30;1.10;;;9.10;99.90;;;;;;1947338;72;27093;-88
2023/10/09 14:12:21;;;;;;;1.17;1.00;;;9.10;99.90;;;;;;1897540;75;25245;-88
2023/10/09 14:15:16;;;;;;;4.70;0.97;;;9.10;99.90;;;;;;1885624;73;25301;-88
2023/10/09 14:18:02;;;;;;;1.27;1.10;;;9.10;99.90;;;;;;1894674;75;25178;-88
2023/10/09 14:23:45;;;;;;;1.00;0.83;;;9.00;99.90;;;;;;1948774;72;26922;-88
2023/10/09 14:26:34;;;;;;;1.20;0.97;;;9.10;99.90;;;;;;1932292;72;25169;-88
2023/10/09 14:29:26;;;;;;;3.23;1.00;;;9.10;99.90;;;;;;1890424;74;25341;-88
2023/10/09 14:32:13;;;;;;;1.10;1.00;;;9.10;99.90;;;;;;1879138;75;25212;-88
2023/10/09 14:35:01;;;;;;;1.33;1.10;;;9.10;99.90;;;;;;1891496;75;25249;-88
2023/10/09 14:37:49;;;;;;;1.07;0.90;;;8.90;99.90;;;;;;1901014;75;25196;-88
2023/10/09 14:40:41;;;;;;;0.87;0.80;;;8.90;99.90;;;;;;1880064;75;25212;-88
2023/10/09 14:43:29;;;;;;;1.33;0.90;;;8.80;99.90;;;;;;1861552;75;25315;-88
2023/10/09 14:46:23;;;;;;;0.80;0.77;;;8.80;99.90;;;;;;1866324;75;25233;-88
2023/10/09 14:49:13;;;;;;;0.87;0.80;;;8.80;99.90;;;;;;1863692;76;25639;-88
2023/10/09 14:51:59;;;;;;;1.00;0.70;;;8.70;99.90;;;;;;1862315;76;25201;-88
2023/10/09 14:54:50;;;;;;;1.50;0.80;;;8.70;99.90;;;;;;1860069;76;25204;-88
2023/10/09 14:57:38;;;;;;;2.50;0.87;;;8.60;99.90;;;;;;1862765;76;25184;-88
2023/10/09 15:00:27;;;;;;;1.60;0.80;;;8.60;99.90;;;;;;1851668;76;25789;-88
2023/10/09 15:03:19;;;;;;;0.70;0.70;;;8.60;99.90;;;;;;1860948;76;25253;-88
2023/10/09 15:06:10;;;;;;;1.10;1.00;;;8.60;99.90;;;;;;1855048;76;25276;-88
2023/10/09 15:08:58;;;;;;;2.17;1.50;;;8.50;99.90;;;;;;1911457;73;25323;-88
2023/10/09 15:14:39;;;;;;;4.97;1.67;;;8.40;99.90;;;;;;1955015;72;27464;-88
2023/10/09 15:17:28;;;;;;;1.77;1.20;;;8.40;99.90;;;;;;1933832;73;25777;-88
2023/10/09 15:23:02;;;;;;;2.53;1.20;;;8.30;99.90;;;;;;1943921;72;27122;-87
2023/10/09 15:25:52;;;;;;;1.17;1.10;;;8.30;99.90;;;;;;1923864;73;25223;-88
2023/10/09 15:28:41;;;;;;;2.17;1.23;;;8.20;99.90;;;;;;1937251;73;25222;-88
2023/10/09 15:34:22;;;;;;;1.40;1.30;;;8.10;99.90;;;;;;1949286;72;27356;-88
2023/10/09 15:37:13;;;;;;;4.37;1.70;;;8.00;99.90;;;;;;1941048;72;25210;-88
2023/10/09 15:43:16;;;;;;;1.70;1.57;;;7.70;99.90;;;;;;1919496;72;27473;-88
2023/10/09 15:46:08;;;;;;;3.57;1.70;;;7.50;99.90;;;;;;1902676;73;25297;-88
2023/10/09 15:48:56;;;;;;;2.60;1.80;;;7.40;99.90;;;;;;1916893;74;25288;-88
2023/10/09 15:51:47;;;;;;;4.50;3.03;;;7.20;99.90;;;;;;1954739;72;25224;-88
2023/10/09 15:57:21;;;;;;;3.67;1.97;;;7.00;99.90;;;;;;1963694;71;27090;-88
2023/10/09 16:00:14;;;;;;;4.57;1.80;;;6.90;99.90;;;;;;1910823;74;26674;-88
2023/10/09 16:03:03;;;;;;;1.87;1.50;;;6.80;99.90;;;;;;1894587;74;25252;-88
2023/10/09 16:05:52;;;;;;;4.60;1.50;;;6.60;99.90;;;;;;1901325;75;25271;-88
2023/10/09 16:11:23;;;;;;;2.03;1.60;;;6.30;99.90;;;;;;1945483;72;27670;-88
2023/10/09 16:14:13;;;;;;;5.00;1.50;;;6.20;99.90;;;;;;1887621;75;25206;-89
2023/10/09 16:17:02;;;;;;;2.63;1.63;;;6.10;99.90;;;;;;1903732;75;25283;-88
2023/10/09 16:19:50;;;;;;;2.57;1.83;;;6.10;99.90;;;;;;1894646;75;25690;-88
2023/10/09 16:22:39;;;;;;;8.63;2.83;;;6.10;99.90;;;;;;1907557;75;25607;-88
2023/10/09 16:25:28;;;;;;;2.87;1.77;;;6.10;99.90;;;;;;1899744;74;25634;-88
2023/10/09 16:28:16;;;;;;;4.17;1.90;;;6.00;99.90;;;;;;1902945;75;25262;-88
2023/10/09 16:31:12;;;;;;;3.87;1.80;;;5.90;99.90;;;;;;1891410;75;25746;-89
2023/10/09 16:33:55;;;;;;;3.73;2.17;;;5.80;99.90;;;;;;1903539;75;25423;-89
2023/10/09 16:39:59;;;;;;;5.07;2.40;;;5.60;99.90;;;;;;1967898;71;27086;-88
2023/10/09 16:42:49;;;;;;;9.30;2.40;;;5.50;99.90;;;;;;2011385;70;25179;-89
2023/10/09 16:58:43;;;;;;;7.07;3.17;;;5.30;99.90;;;;;;1843885;77;27187;-88
2023/10/09 17:05:55;;;;;;;9.70;3.77;;;4.70;99.90;;;;;;1981626;71;26381;-89
2023/10/09 17:08:46;;;;;;;7.57;3.80;;;4.50;99.90;;;;;;2027019;70;25167;-89
2023/10/09 17:11:36;;;;;;;9.80;4.20;;;4.40;99.90;;;;;;2012833;69;25696;-89
2023/10/09 17:14:26;;;;;;;8.73;4.03;;;4.20;99.90;;;;;;2014877;69;25329;-89
2023/10/09 17:17:15;;;;;;;6.97;3.83;;;4.10;99.90;;;;;;2035893;69;25771;-89
2023/10/09 17:20:09;;;;;;;8.67;3.57;;;4.10;99.90;;;;;;2012353;69;25219;-89
2023/10/09 17:26:10;;;;;;;10.03;3.77;;;4.20;99.90;;;;;;1969759;71;26447;-88
2023/10/09 17:31:44;;;;;;;6.63;3.73;;;4.10;99.90;;;;;;1939655;72;26521;-88
2023/10/09 17:34:34;;;;;;;8.80;3.90;;;4.00;99.90;;;;;;1924089;73;25381;-88
2023/10/09 17:37:22;;;;;;;9.93;3.83;;;4.00;99.90;;;;;;1925319;73;25165;-88
2023/10/09 17:43:05;;;;;;;10.80;5.07;;;3.90;99.90;;;;;;1937267;72;27113;-88
2023/10/09 17:45:54;;;;;;;16.57;5.60;;;3.80;99.90;;;;;;1903705;75;25255;-88
2023/10/09 17:48:44;;;;;;;7.93;4.60;;;3.70;99.90;;;;;;1891419;74;25219;-86
2023/10/09 17:51:33;;;;;;;16.73;6.93;;;3.60;99.90;;;;;;1899348;75;25324;-88
2023/10/09 17:57:21;;;;;;;17.50;7.93;;;3.40;99.90;;;;;;1946799;72;27091;-88
2023/10/09 18:00:21;;;;;;;13.43;7.80;;;3.30;99.90;;;;;;1930878;73;25266;-88
2023/10/09 18:05:52;;;;;;;18.40;9.10;;;3.20;99.90;;;;;;1944864;72;26651;-88
2023/10/09 18:08:42;;;;;;;26.00;10.80;;;3.20;99.90;;;;;;1922679;73;26422;-88
2023/10/09 18:11:31;;;;;;;30.30;11.20;;;3.10;99.90;;;;;;1926969;73;25270;-90
2023/10/09 18:14:20;;;;;;;25.77;9.53;;;3.10;99.90;;;;;;1930139;73;25243;-90
2023/10/09 18:17:08;;;;;;;20.80;8.10;;;3.00;99.90;;;;;;1938725;73;25227;-90
2023/10/09 18:19:57;;;;;;;20.23;8.13;;;3.00;99.90;;;;;;1928005;73;25747;-88
2023/10/09 18:22:50;;;;;;;19.57;8.30;;;3.00;99.90;;;;;;1925877;73;25708;-88
2023/10/09 18:25:40;;;;;;;19.27;8.83;;;3.00;99.90;;;;;;1928953;73;25792;-88
2023/10/09 18:28:29;;;;;;;20.90;9.57;;;3.00;99.90;;;;;;1936770;73;25238;-90
2023/10/09 18:31:20;;;;;;;16.87;8.03;;;3.00;99.90;;;;;;1928830;73;25896;-88
2023/10/09 18:34:09;;;;;;;21.33;8.93;;;2.90;99.90;;;;;;1933196;73;25282;-88
2023/10/09 18:39:46;;;;;;;27.03;9.93;;;2.70;99.90;;;;;;1960332;72;27453;-88
2023/10/09 18:42:37;;;;;;;23.40;9.53;;;2.60;99.90;;;;;;1907408;73;25332;-90
2023/10/09 18:48:11;;;;;;;24.30;8.23;;;2.40;99.90;;;;;;1906687;74;27692;-88
2023/10/09 18:50:59;;;;;;;21.20;7.53;;;2.30;99.90;;;;;;1903426;75;25200;-88
2023/10/09 18:53:49;;;;;;;20.40;7.90;;;2.20;99.90;;;;;;1889630;75;25343;-90
2023/10/09 18:56:38;;;;;;;22.43;8.03;;;2.10;99.90;;;;;;1882017;75;25173;-88
2023/10/09 18:59:29;;;;;;;19.43;7.87;;;2.10;99.90;;;;;;1894996;75;26696;-90
2023/10/09 19:02:18;;;;;;;21.33;8.63;;;2.10;99.90;;;;;;1883804;75;25379;-90
2023/10/09 19:05:08;;;;;;;21.00;8.70;;;2.10;99.90;;;;;;1895201;75;25309;-90
2023/10/09 19:07:57;;;;;;;27.27;9.53;;;1.90;99.90;;;;;;1898478;75;25349;-90
2023/10/09 19:10:46;;;;;;;20.00;9.27;;;1.80;99.90;;;;;;1886088;75;25291;-88
2023/10/09 19:13:35;;;;;;;20.47;10.07;;;1.80;99.90;;;;;;1894285;75;25736;-89
2023/10/09 19:16:24;;;;;;;23.93;9.90;;;1.80;99.90;;;;;;1889108;75;25298;-90
2023/10/09 19:19:13;;;;;;;26.10;12.07;;;1.70;99.90;;;;;;1904608;75;25235;-88
2023/10/09 19:22:02;;;;;;;32.13;14.60;;;1.70;99.90;;;;;;1895921;75;25317;-89
2023/10/09 19:24:52;;;;;;;31.80;13.70;;;1.60;99.90;;;;;;1897217;75;25393;-88
2023/10/09 19:27:40;;;;;;;37.03;12.40;;;1.50;99.90;;;;;;1882108;75;25255;-88
2023/10/09 19:30:30;;;;;;;29.70;11.57;;;1.40;99.90;;;;;;1895246;75;25289;-88
2023/10/09 19:36:14;;;;;;;22.70;9.77;;;1.40;99.90;;;;;;1942300;72;28189;-89
2023/10/09 19:39:03;;;;;;;25.03;9.70;;;1.30;99.90;;;;;;1933803;73;25225;-89
2023/10/09 19:41:51;;;;;;;24.50;10.37;;;1.30;99.90;;;;;;1908300;73;25712;-87
2023/10/09 19:44:44;;;;;;;26.63;10.77;;;1.20;99.90;;;;;;1887545;75;25749;-89
2023/10/09 19:47:32;;;;;;;21.23;9.73;;;1.10;99.90;;;;;;1897133;75;25227;-89
2023/10/09 19:50:21;;;;;;;21.87;9.37;;;1.10;99.90;;;;;;1905563;75;25332;-89
2023/10/09 19:53:12;;;;;;;22.50;9.57;;;1.00;99.90;;;;;;1892054;75;25852;-89
2023/10/09 19:56:02;;;;;;;22.57;10.10;;;1.00;99.90;;;;;;1887802;75;25316;-90
2023/10/09 19:58:53;;;;;;;23.17;10.47;;;1.00;99.90;;;;;;1903380;75;25644;-90
2023/10/09 20:04:27;;;;;;;28.97;11.23;;;0.90;99.90;;;;;;1962015;72;27025;-87